createdAt,value
2022-12-04T00:01:47.690Z,11.63
2022-12-04T00:04:19.369Z,13.30
2022-12-04T00:06:50.097Z,12.33
2022-12-04T00:09:23.576Z,12.83
2022-12-04T00:11:54.106Z,13.60
2022-12-04T00:17:11.848Z,15.40
2022-12-04T00:19:50.286Z,12.60
2022-12-04T00:22:21.817Z,13.00
2022-12-04T00:24:51.353Z,13.90
2022-12-04T00:27:21.289Z,13.87
2022-12-04T00:29:57.980Z,14.83
2022-12-04T00:32:29.263Z,13.60
2022-12-04T00:34:58.195Z,12.97
2022-12-04T00:37:27.566Z,12.33
2022-12-04T00:39:57.417Z,11.60
2022-12-04T00:42:26.533Z,11.90
2022-12-04T00:45:00.138Z,12.80
2022-12-04T00:47:31.789Z,12.63
2022-12-04T00:50:02.189Z,13.07
2022-12-04T00:52:31.315Z,11.30
2022-12-04T00:55:00.729Z,11.77
2022-12-04T00:57:31.312Z,12.40
2022-12-04T01:00:05.219Z,11.57
2022-12-04T01:02:34.287Z,13.17
2022-12-04T01:05:03.553Z,12.07
2022-12-04T01:07:32.527Z,12.90
2022-12-04T01:10:04.521Z,11.03
2022-12-04T01:12:33.311Z,11.23
2022-12-04T01:15:05.662Z,11.60
2022-12-04T01:17:34.642Z,11.53
2022-12-04T01:20:06.706Z,11.03
2022-12-04T01:22:36.411Z,10.13
2022-12-04T01:25:05.387Z,10.57
2022-12-04T01:27:35.751Z,11.23
2022-12-04T01:30:08.865Z,12.20
2022-12-04T01:32:38.877Z,11.33
2022-12-04T01:35:09.548Z,10.50
2022-12-04T01:37:40.466Z,11.20
2022-12-04T01:40:10.590Z,11.03
2022-12-04T01:42:39.661Z,11.87
2022-12-04T01:45:43.684Z,13.30
2022-12-04T01:48:17.423Z,11.43
2022-12-04T01:50:48.118Z,10.60
2022-12-04T01:53:16.990Z,10.60
2022-12-04T01:55:46.518Z,10.40
2022-12-04T01:58:18.493Z,11.23
2022-12-04T02:00:54.747Z,10.30
2022-12-04T02:03:26.191Z,9.17
2022-12-04T02:05:56.294Z,10.77
2022-12-04T02:08:25.677Z,9.90
2022-12-04T02:10:59.336Z,9.97
2022-12-04T02:13:31.227Z,10.70
2022-12-04T02:16:08.366Z,10.83
2022-12-04T02:18:39.654Z,11.33
2022-12-04T02:21:12.360Z,12.33
2022-12-04T02:23:52.859Z,12.33
2022-12-04T02:26:29.156Z,10.43
2022-12-04T02:29:01.740Z,11.00
2022-12-04T02:31:36.052Z,11.43
2022-12-04T02:34:09.414Z,11.80
2022-12-04T02:36:44.151Z,12.17
2022-12-04T02:39:17.065Z,12.47
2022-12-04T02:41:47.619Z,12.43
2022-12-04T02:44:22.377Z,11.63
2022-12-04T02:46:55.029Z,12.20
2022-12-04T02:49:28.747Z,11.30
2022-12-04T02:51:58.127Z,11.80
2022-12-04T02:54:29.447Z,12.00
2022-12-04T02:56:59.604Z,12.50
2022-12-04T02:59:35.793Z,11.57
2022-12-04T03:02:08.518Z,11.50
2022-12-04T03:04:38.082Z,13.23
2022-12-04T03:07:09.424Z,12.10
2022-12-04T03:09:42.729Z,11.90
2022-12-04T03:12:15.858Z,11.23
2022-12-04T03:14:51.201Z,11.27
2022-12-04T03:17:23.257Z,11.60
2022-12-04T03:19:58.593Z,11.43
2022-12-04T03:22:29.116Z,11.17
2022-12-04T03:24:59.690Z,10.43
2022-12-04T03:27:31.966Z,10.80
2022-12-04T03:30:06.011Z,10.53
2022-12-04T03:32:38.813Z,10.13
2022-12-04T03:35:09.795Z,10.30
2022-12-04T03:37:41.667Z,10.77
2022-12-04T03:40:14.795Z,10.57
2022-12-04T03:42:47.410Z,11.33
2022-12-04T03:45:21.998Z,11.67
2022-12-04T03:47:55.308Z,10.87
2022-12-04T03:50:29.222Z,10.60
2022-12-04T03:53:06.614Z,10.97
2022-12-04T03:55:38.328Z,10.53
2022-12-04T03:58:09.359Z,11.40
2022-12-04T04:00:42.165Z,11.13
2022-12-04T04:03:13.401Z,9.97
2022-12-04T04:05:44.152Z,11.17
2022-12-04T04:08:29.739Z,10.57
2022-12-04T04:11:08.472Z,10.10
2022-12-04T04:13:58.408Z,11.50
2022-12-04T04:16:50.489Z,10.90
2022-12-04T04:19:38.239Z,10.20
2022-12-04T04:22:27.107Z,10.97
2022-12-04T04:25:00.251Z,11.23
2022-12-04T04:27:29.864Z,11.40
2022-12-04T04:30:00.611Z,10.23
2022-12-04T04:32:37.295Z,10.33
2022-12-04T04:35:11.022Z,10.50
2022-12-04T04:37:43.456Z,12.60
2022-12-04T04:40:15.866Z,10.20
2022-12-04T04:42:48.216Z,11.20
2022-12-04T04:45:21.180Z,11.10
2022-12-04T04:47:54.795Z,10.90
2022-12-04T04:50:27.178Z,10.83
2022-12-04T04:52:58.014Z,9.73
2022-12-04T04:55:28.145Z,10.40
2022-12-04T04:57:57.139Z,10.77
2022-12-04T05:00:25.983Z,10.23
2022-12-04T05:02:58.989Z,10.20
2022-12-04T05:05:28.917Z,9.53
2022-12-04T05:07:59.392Z,10.13
2022-12-04T05:10:28.333Z,10.13
2022-12-04T05:12:57.924Z,10.53
2022-12-04T05:15:27.817Z,10.97
2022-12-04T05:17:58.723Z,11.03
2022-12-04T05:20:26.701Z,11.43
2022-12-04T05:22:55.572Z,10.07
2022-12-04T05:25:26.599Z,12.00
2022-12-04T05:27:55.443Z,10.43
2022-12-04T05:30:25.440Z,10.60
2022-12-04T05:32:55.683Z,11.63
2022-12-04T05:35:28.571Z,12.33
2022-12-04T05:37:57.926Z,12.40
2022-12-04T05:40:27.536Z,11.23
2022-12-04T05:42:59.518Z,12.40
2022-12-04T05:45:28.222Z,11.37
2022-12-04T05:47:57.320Z,11.67
2022-12-04T05:50:31.836Z,11.30
2022-12-04T05:53:01.712Z,11.67
2022-12-04T05:55:31.329Z,11.70
2022-12-04T05:58:00.614Z,12.00
2022-12-04T06:00:30.235Z,11.97
2022-12-04T06:02:59.509Z,11.17
2022-12-04T06:05:31.098Z,12.93
2022-12-04T06:08:01.814Z,12.07
2022-12-04T06:10:34.089Z,12.50
2022-12-04T06:13:04.408Z,12.47
2022-12-04T06:15:34.461Z,13.77
2022-12-04T06:18:04.297Z,13.17
2022-12-04T06:20:43.395Z,13.07
2022-12-04T06:23:18.734Z,14.10
2022-12-04T06:28:36.351Z,11.90
2022-12-04T06:31:08.468Z,12.00
2022-12-04T06:33:40.850Z,12.70
2022-12-04T06:36:28.576Z,12.93
2022-12-04T06:39:00.194Z,11.77
2022-12-04T06:41:38.364Z,11.90
2022-12-04T06:44:12.210Z,11.47
2022-12-04T06:46:50.370Z,11.60
2022-12-04T06:49:23.640Z,12.10
2022-12-04T06:51:57.449Z,11.93
2022-12-04T06:54:29.217Z,10.93
2022-12-04T06:57:00.441Z,11.97
2022-12-04T06:59:31.650Z,11.23
2022-12-04T07:02:00.537Z,11.60
2022-12-04T07:04:30.911Z,11.03
2022-12-04T07:22:42.279Z,10.87
2022-12-04T07:31:19.535Z,10.90
2022-12-04T07:34:02.479Z,10.23
2022-12-04T07:39:33.626Z,11.50
2022-12-04T07:58:47.713Z,11.27
2022-12-04T08:07:00.304Z,12.67
2022-12-04T08:17:50.685Z,13.00
2022-12-04T08:20:19.187Z,12.33
2022-12-04T08:23:16.774Z,11.60
2022-12-04T08:31:46.082Z,13.10
2022-12-04T08:34:16.988Z,11.93
2022-12-04T08:36:50.985Z,11.60
2022-12-04T08:39:21.101Z,12.13
2022-12-04T08:41:53.853Z,12.50
2022-12-04T08:44:25.789Z,11.60
2022-12-04T08:46:54.303Z,11.53
2022-12-04T08:49:24.154Z,11.10
2022-12-04T08:51:53.201Z,11.43
2022-12-04T08:54:23.916Z,11.37
2022-12-04T08:56:52.826Z,11.00
2022-12-04T08:59:22.930Z,12.07
2022-12-04T09:01:52.526Z,12.93
2022-12-04T09:04:21.192Z,13.43
2022-12-04T09:06:49.648Z,13.10
2022-12-04T09:09:17.920Z,12.23
2022-12-04T09:11:49.731Z,12.93
2022-12-04T09:14:20.553Z,13.13
2022-12-04T09:16:49.113Z,11.70
2022-12-04T09:19:17.730Z,12.47
2022-12-04T09:21:46.757Z,13.03
2022-12-04T09:24:15.290Z,12.97
2022-12-04T09:26:44.613Z,13.10
2022-12-04T09:29:17.542Z,13.40
2022-12-04T09:32:27.391Z,11.90
2022-12-04T09:35:25.198Z,12.07
2022-12-04T09:43:34.707Z,11.20
2022-12-04T09:46:14.130Z,11.10
2022-12-04T09:48:45.746Z,10.13
2022-12-04T09:51:19.681Z,11.33
2022-12-04T09:53:50.539Z,11.63
2022-12-04T09:56:23.382Z,11.80
2022-12-04T09:58:54.408Z,11.03
2022-12-04T10:01:28.143Z,10.83
2022-12-04T10:04:01.141Z,11.57
2022-12-04T10:06:38.066Z,11.20
2022-12-04T10:09:18.907Z,10.73
2022-12-04T10:11:50.871Z,12.27
2022-12-04T10:14:23.496Z,11.40
2022-12-04T10:17:09.135Z,11.07
2022-12-04T10:19:48.257Z,10.60
2022-12-04T10:22:21.112Z,10.60
2022-12-04T10:24:52.223Z,10.53
2022-12-04T10:27:23.194Z,9.73
2022-12-04T10:29:56.539Z,10.83
2022-12-04T10:32:30.859Z,10.60
2022-12-04T10:35:06.753Z,10.73
2022-12-04T10:37:37.085Z,11.20
2022-12-04T10:40:09.063Z,11.33
2022-12-04T10:42:43.103Z,11.40
2022-12-04T10:45:12.440Z,11.57
2022-12-04T10:47:45.918Z,10.93
2022-12-04T10:50:16.028Z,11.13
2022-12-04T10:52:51.234Z,11.03
2022-12-04T10:55:29.548Z,9.97
2022-12-04T10:57:58.441Z,11.57
2022-12-04T11:00:34.669Z,10.53
2022-12-04T11:03:07.576Z,10.30
2022-12-04T11:05:41.368Z,9.60
2022-12-04T11:08:13.392Z,11.70
2022-12-04T11:10:46.165Z,10.60
2022-12-04T11:13:17.455Z,10.50
2022-12-04T11:15:46.699Z,10.97
2022-12-04T11:18:19.509Z,10.57
2022-12-04T11:20:52.447Z,10.77
2022-12-04T11:23:21.738Z,12.50
2022-12-04T11:25:51.727Z,11.47
2022-12-04T11:28:40.758Z,13.20
2022-12-04T11:31:12.177Z,11.50
2022-12-04T11:33:45.096Z,11.87
2022-12-04T11:36:20.353Z,11.77
2022-12-04T11:38:49.003Z,10.73
2022-12-04T11:41:26.340Z,11.30
2022-12-04T11:43:59.649Z,11.90
2022-12-04T11:46:31.717Z,11.63
2022-12-04T11:49:03.443Z,11.67
2022-12-04T11:51:38.256Z,11.23
2022-12-04T11:54:09.622Z,11.27
2022-12-04T11:56:41.059Z,11.17
2022-12-04T11:59:22.230Z,11.10
2022-12-04T12:01:58.263Z,10.70
2022-12-04T12:05:00.624Z,10.97
2022-12-04T12:07:40.359Z,10.90
2022-12-04T12:10:12.383Z,10.90
2022-12-04T12:12:51.143Z,11.10
2022-12-04T12:15:26.055Z,12.17
2022-12-04T12:18:09.696Z,11.70
2022-12-04T12:20:41.613Z,11.73
2022-12-04T12:23:29.603Z,10.97
2022-12-04T12:26:04.062Z,12.10
2022-12-04T12:28:54.428Z,11.30
2022-12-04T12:31:36.613Z,11.93
2022-12-04T12:34:08.850Z,12.57
2022-12-04T12:36:46.662Z,10.17
2022-12-04T12:39:21.878Z,11.87
2022-12-04T12:41:53.735Z,11.70
2022-12-04T12:44:40.913Z,11.20
2022-12-04T12:47:11.422Z,10.93
2022-12-04T12:49:45.938Z,11.07
2022-12-04T13:11:06.430Z,11.77
2022-12-04T13:13:37.881Z,11.87
2022-12-04T13:16:08.492Z,12.37
2022-12-04T13:18:45.597Z,12.03
2022-12-04T13:21:25.836Z,12.87
2022-12-04T13:24:03.877Z,12.70
2022-12-04T13:26:49.145Z,10.73
2022-12-04T13:29:23.065Z,12.80
2022-12-04T13:31:56.868Z,12.70
2022-12-04T13:35:00.464Z,11.33
2022-12-04T13:37:47.839Z,12.00
2022-12-04T13:40:34.694Z,11.63
2022-12-04T13:43:30.673Z,12.03
2022-12-04T13:46:05.957Z,13.00
2022-12-04T13:48:37.683Z,12.43
2022-12-04T13:51:20.890Z,11.30
2022-12-04T13:54:03.707Z,11.00
2022-12-04T13:56:32.886Z,13.03
2022-12-04T13:59:05.837Z,11.87
2022-12-04T14:01:50.935Z,12.53
2022-12-04T14:04:27.805Z,12.67
2022-12-04T14:07:00.102Z,13.37
2022-12-04T14:09:30.264Z,12.67
2022-12-04T14:12:01.527Z,12.30
2022-12-04T14:14:32.684Z,12.40
2022-12-04T14:17:02.312Z,12.90
2022-12-04T14:19:46.604Z,12.40
2022-12-04T14:22:29.154Z,12.53
2022-12-04T14:25:07.461Z,12.67
2022-12-04T14:27:59.260Z,12.83
2022-12-04T14:30:34.654Z,12.90
2022-12-04T14:33:11.300Z,12.50
2022-12-04T14:35:46.088Z,13.87
2022-12-04T14:38:19.872Z,12.90
2022-12-04T14:40:50.940Z,13.73
2022-12-04T14:43:21.188Z,13.93
2022-12-04T14:45:54.537Z,14.20
2022-12-04T14:48:34.633Z,14.80
2022-12-04T14:51:19.872Z,14.63
2022-12-04T14:53:50.954Z,15.00
2022-12-04T14:56:25.853Z,14.63
2022-12-04T14:58:54.591Z,15.13
2022-12-04T15:01:29.434Z,16.17
2022-12-04T15:04:00.660Z,14.67
2022-12-04T15:06:30.714Z,15.30
2022-12-04T15:09:27.339Z,15.70
2022-12-04T15:12:14.932Z,16.37
2022-12-04T15:14:51.084Z,15.83
2022-12-04T15:17:25.607Z,16.37
2022-12-04T15:19:54.260Z,17.30
2022-12-04T15:22:27.570Z,18.23
2022-12-04T15:24:56.683Z,18.07
2022-12-04T15:27:32.047Z,16.40
2022-12-04T15:30:02.873Z,16.17
2022-12-04T15:32:35.190Z,15.73
2022-12-04T15:35:09.637Z,15.30
2022-12-04T15:37:38.874Z,17.27
2022-12-04T15:40:07.789Z,14.90
2022-12-04T15:42:36.974Z,16.70
2022-12-04T15:45:24.540Z,15.10
2022-12-04T16:16:01.580Z,17.07
2022-12-04T16:18:49.225Z,14.77
2022-12-04T16:21:56.577Z,16.67
2022-12-04T16:24:26.419Z,16.33
2022-12-04T16:29:38.275Z,18.20
2022-12-04T16:32:10.466Z,17.07
2022-12-04T16:34:41.133Z,14.67
2022-12-04T16:37:13.280Z,15.63
2022-12-04T16:39:42.609Z,14.17
2022-12-04T17:40:16.322Z,14.63
2022-12-04T17:46:04.168Z,13.23
2022-12-04T17:54:08.374Z,14.90
2022-12-04T17:57:00.965Z,14.97
2022-12-04T18:00:01.236Z,14.30
2022-12-04T18:06:18.906Z,13.93
2022-12-04T18:20:20.647Z,16.00
2022-12-04T18:37:16.954Z,14.47
2022-12-04T18:46:22.759Z,15.00
2022-12-04T18:52:20.913Z,14.03
2022-12-04T19:19:09.263Z,12.97
2022-12-04T19:21:42.330Z,13.63
2022-12-04T19:24:18.289Z,12.97
2022-12-04T19:26:47.658Z,12.47
2022-12-04T19:29:17.625Z,13.13
2022-12-04T19:41:10.658Z,11.87
2022-12-04T19:43:39.558Z,11.30
2022-12-04T19:46:10.693Z,11.70
2022-12-04T19:48:41.198Z,12.67
2022-12-04T19:51:32.747Z,12.03
2022-12-04T19:54:04.074Z,10.87
2022-12-04T19:56:41.360Z,11.80
2022-12-04T19:59:13.967Z,11.13
2022-12-04T20:01:43.575Z,11.33
2022-12-04T20:04:16.059Z,12.77
2022-12-04T20:06:47.937Z,11.67
2022-12-04T20:09:26.904Z,12.10
2022-12-04T20:12:03.548Z,10.97
2022-12-04T20:17:18.812Z,10.80
2022-12-04T20:19:52.977Z,12.50
2022-12-04T20:22:26.617Z,9.70
2022-12-04T20:25:00.750Z,10.27
2022-12-04T20:30:36.730Z,11.03
2022-12-04T20:33:06.840Z,11.40
2022-12-04T20:35:50.093Z,9.93
2022-12-04T20:38:33.402Z,11.37
2022-12-04T20:41:10.042Z,9.33
2022-12-04T20:43:43.154Z,11.53
2022-12-04T20:46:20.393Z,10.77
2022-12-04T20:48:58.825Z,10.47
2022-12-04T20:59:52.275Z,10.53
2022-12-04T21:02:22.163Z,11.13
2022-12-04T21:04:52.803Z,10.33
2022-12-04T21:07:22.935Z,11.03
2022-12-04T21:09:51.637Z,11.50
2022-12-04T21:12:43.139Z,10.23
2022-12-04T21:15:31.268Z,9.97
2022-12-04T21:18:02.418Z,10.60
2022-12-04T21:20:31.145Z,10.03
2022-12-04T21:22:59.879Z,10.73
2022-12-04T21:25:29.347Z,10.20
2022-12-04T21:27:58.981Z,11.07
2022-12-04T21:30:29.355Z,9.87
2022-12-04T21:32:59.519Z,10.93
2022-12-04T21:35:29.300Z,10.67
2022-12-04T21:37:59.440Z,11.03
2022-12-04T21:40:29.313Z,11.00
2022-12-04T21:42:57.416Z,9.10
2022-12-04T21:45:26.627Z,10.80
2022-12-04T21:47:58.918Z,10.30
2022-12-04T21:50:27.781Z,10.33
2022-12-04T21:52:57.836Z,9.50
2022-12-04T21:55:31.445Z,9.87
2022-12-04T21:58:02.483Z,9.67
2022-12-04T22:00:35.979Z,9.20
2022-12-04T22:03:10.033Z,10.50
2022-12-04T22:05:40.827Z,9.00
2022-12-04T22:08:28.036Z,9.10
2022-12-04T22:10:59.064Z,9.87
2022-12-04T22:16:30.641Z,10.20
2022-12-04T22:19:25.065Z,9.30
2022-12-04T22:22:13.614Z,9.67
2022-12-04T22:24:46.577Z,9.43
2022-12-04T22:30:22.799Z,9.03
2022-12-04T22:32:52.957Z,10.17
2022-12-04T22:35:35.726Z,8.90
2022-12-04T22:50:05.217Z,10.43
2022-12-04T23:01:35.010Z,9.70
2022-12-04T23:07:21.097Z,9.27
2022-12-04T23:21:49.698Z,10.30
2022-12-04T23:24:39.592Z,9.80
2022-12-04T23:27:18.695Z,10.13
2022-12-04T23:32:49.125Z,10.00
2022-12-04T23:35:33.044Z,9.47
2022-12-04T23:38:04.143Z,10.07
2022-12-04T23:43:53.871Z,9.83
2022-12-04T23:46:26.931Z,8.87
2022-12-04T23:48:57.346Z,9.87
2022-12-04T23:51:29.770Z,10.20
2022-12-04T23:54:00.279Z,9.30
2022-12-04T23:59:32.311Z,10.03
